Keszthely, Hungary
Current Conditions -  °F | °C
As of 12:45 PM on Thursday 23 Oct 2014 (Local Time) from LHSM Reporting Station
Rain Showers Rain Showers  
Wind Chill: 43°   Ceiling: 2600
Heat Index: 48°   Visibility: 6mi
Dew Point: 43°   Wind: 12mph
Humidity: 82%   Direction: 360°N
Pressure: 29.8"   Gusts: NA
Location:  46.77°N, 17.24°E
Report Text: LHSM 231045Z 36010KT 9999 -SHRA FEW016 BKN026 OVC050 09/06 Q1009 NOSIG
Loading
Personal Weather Stations






























Interactive Weather Map
Tropical Storm Tracking
New forecast layout! Learn more

10-Day Weather Forecast

Advertisements
Track Severe Weather on mobile